sensor_id;sensor_type;location;lat;lon;timestamp;pressure;altitude;pressure_sealevel;temperature;humidity
21433;BME280;18592;49.708;10.900;2024-03-08T00:01:16;98802.50;;;13.11;52.46
21433;BME280;18592;49.708;10.900;2024-03-08T00:03:16;98803.06;;;13.13;52.87
21433;BME280;18592;49.708;10.900;2024-03-08T00:05:17;98800.31;;;13.13;52.94
21433;BME280;18592;49.708;10.900;2024-03-08T00:07:18;98795.94;;;13.12;53.10
21433;BME280;18592;49.708;10.900;2024-03-08T00:09:33;98797.84;;;13.12;52.96
21433;BME280;18592;49.708;10.900;2024-03-08T00:11:36;98794.03;;;13.13;52.72
21433;BME280;18592;49.708;10.900;2024-03-08T00:13:36;98789.66;;;13.12;52.73
21433;BME280;18592;49.708;10.900;2024-03-08T00:15:37;98792.38;;;13.12;52.65
21433;BME280;18592;49.708;10.900;2024-03-08T00:17:38;98786.09;;;13.11;52.91
21433;BME280;18592;49.708;10.900;2024-03-08T00:19:39;98787.75;;;13.12;53.00
21433;BME280;18592;49.708;10.900;2024-03-08T00:21:40;98785.00;;;13.12;53.04
21433;BME280;18592;49.708;10.900;2024-03-08T00:23:41;98785.84;;;13.13;53.21
21433;BME280;18592;49.708;10.900;2024-03-08T00:25:42;98779.25;;;13.14;52.88
21433;BME280;18592;49.708;10.900;2024-03-08T00:27:42;98780.09;;;13.14;52.97
21433;BME280;18592;49.708;10.900;2024-03-08T00:29:42;98777.63;;;13.13;53.17
21433;BME280;18592;49.708;10.900;2024-03-08T00:31:43;98781.16;;;13.13;53.10
21433;BME280;18592;49.708;10.900;2024-03-08T00:33:43;98776.28;;;13.15;53.20
21433;BME280;18592;49.708;10.900;2024-03-08T00:35:54;98775.44;;;13.15;53.49
21433;BME280;18592;49.708;10.900;2024-03-08T00:37:57;98773.53;;;13.15;53.36
21433;BME280;18592;49.708;10.900;2024-03-08T00:39:57;98776.00;;;13.17;53.43
21433;BME280;18592;49.708;10.900;2024-03-08T00:42:06;98768.63;;;13.17;53.77
21433;BME280;18592;49.708;10.900;2024-03-08T00:44:06;98766.44;;;13.19;53.76
21433;BME280;18592;49.708;10.900;2024-03-08T00:46:07;98769.19;;;13.19;53.92
21433;BME280;18592;49.708;10.900;2024-03-08T00:48:09;98768.91;;;13.21;54.06
21433;BME280;18592;49.708;10.900;2024-03-08T00:50:11;98770.28;;;13.23;53.91
21433;BME280;18592;49.708;10.900;2024-03-08T00:52:11;98755.25;;;13.26;53.85
21433;BME280;18592;49.708;10.900;2024-03-08T00:54:11;98754.19;;;13.27;54.05
21433;BME280;18592;49.708;10.900;2024-03-08T00:56:12;98755.00;;;13.27;53.57
21433;BME280;18592;49.708;10.900;2024-03-08T00:58:13;98750.59;;;13.26;53.24
21433;BME280;18592;49.708;10.900;2024-03-08T01:00:13;98747.88;;;13.26;53.26
21433;BME280;18592;49.708;10.900;2024-03-08T01:02:35;98753.09;;;13.28;53.47
21433;BME280;18592;49.708;10.900;2024-03-08T01:15:20;98749.34;;;13.96;51.49
21433;BME280;18592;49.708;10.900;2024-03-08T01:17:21;98742.16;;;13.80;51.98
21433;BME280;18592;49.708;10.900;2024-03-08T01:19:23;98743.19;;;13.69;52.20
21433;BME280;18592;49.708;10.900;2024-03-08T01:21:33;98743.44;;;13.62;52.42
21433;BME280;18592;49.708;10.900;2024-03-08T01:23:35;98732.16;;;13.54;52.42
21433;BME280;18592;49.708;10.900;2024-03-08T01:25:44;98724.50;;;13.51;52.55
21433;BME280;18592;49.708;10.900;2024-03-08T01:27:45;98725.84;;;13.48;52.59
21433;BME280;18592;49.708;10.900;2024-03-08T01:29:45;98727.44;;;13.44;52.47
21433;BME280;18592;49.708;10.900;2024-03-08T01:31:50;98724.44;;;13.41;52.51
21433;BME280;18592;49.708;10.900;2024-03-08T01:33:52;98721.09;;;13.38;52.68
21433;BME280;18592;49.708;10.900;2024-03-08T01:35:53;98723.28;;;13.36;52.45
21433;BME280;18592;49.708;10.900;2024-03-08T01:37:53;98717.25;;;13.34;52.52
21433;BME280;18592;49.708;10.900;2024-03-08T01:39:54;98716.97;;;13.31;52.42
21433;BME280;18592;49.708;10.900;2024-03-08T01:41:55;98710.69;;;13.30;52.72
21433;BME280;18592;49.708;10.900;2024-03-08T01:43:57;98715.56;;;13.28;52.92
21433;BME280;18592;49.708;10.900;2024-03-08T01:45:58;98707.34;;;13.28;53.08
21433;BME280;18592;49.708;10.900;2024-03-08T01:48:03;98715.56;;;13.28;53.11
21433;BME280;18592;49.708;10.900;2024-03-08T01:50:04;98706.28;;;13.29;53.26
21433;BME280;18592;49.708;10.900;2024-03-08T01:52:06;98704.63;;;13.28;53.18
21433;BME280;18592;49.708;10.900;2024-03-08T01:54:10;98703.81;;;13.28;53.37
21433;BME280;18592;49.708;10.900;2024-03-08T01:56:11;98698.06;;;13.29;53.66
21433;BME280;18592;49.708;10.900;2024-03-08T01:58:19;98692.31;;;13.31;53.66
21433;BME280;18592;49.708;10.900;2024-03-08T02:00:22;98695.63;;;13.33;53.66
21433;BME280;18592;49.708;10.900;2024-03-08T02:02:24;98688.50;;;13.32;53.55
21433;BME280;18592;49.708;10.900;2024-03-08T02:04:24;98682.19;;;13.31;53.53
21433;BME280;18592;49.708;10.900;2024-03-08T02:06:44;98679.22;;;13.33;53.69
21433;BME280;18592;49.708;10.900;2024-03-08T02:19:39;98677.75;;;13.15;53.22
21433;BME280;18592;49.708;10.900;2024-03-08T02:21:39;98679.13;;;13.18;53.24
21433;BME280;18592;49.708;10.900;2024-03-08T02:23:45;98684.59;;;13.18;53.24
21433;BME280;18592;49.708;10.900;2024-03-08T02:25:46;98674.72;;;13.17;53.25
21433;BME280;18592;49.708;10.900;2024-03-08T02:27:46;98674.72;;;13.17;53.20
21433;BME280;18592;49.708;10.900;2024-03-08T02:29:47;98679.38;;;13.16;53.23
21433;BME280;18592;49.708;10.900;2024-03-08T02:31:50;98675.00;;;13.15;52.77
21433;BME280;18592;49.708;10.900;2024-03-08T02:33:51;98667.88;;;13.14;53.06
21433;BME280;18592;49.708;10.900;2024-03-08T02:35:51;98669.78;;;13.14;53.32
21433;BME280;18592;49.708;10.900;2024-03-08T02:37:52;98666.22;;;13.13;52.95
21433;BME280;18592;49.708;10.900;2024-03-08T02:39:52;98663.75;;;13.12;52.88
21433;BME280;18592;49.708;10.900;2024-03-08T02:41:52;98664.03;;;13.10;52.89
21433;BME280;18592;49.708;10.900;2024-03-08T02:43:53;98663.19;;;13.10;52.72
21433;BME280;18592;49.708;10.900;2024-03-08T02:45:53;98661.53;;;13.09;52.88
21433;BME280;18592;49.708;10.900;2024-03-08T02:47:54;98656.91;;;13.09;52.86
21433;BME280;18592;49.708;10.900;2024-03-08T02:50:10;98657.41;;;13.06;52.77
21433;BME280;18592;49.708;10.900;2024-03-08T03:02:52;98645.94;;;13.71;51.83
21433;BME280;18592;49.708;10.900;2024-03-08T03:04:56;98650.28;;;13.57;51.88
21433;BME280;18592;49.708;10.900;2024-03-08T03:06:56;98648.34;;;13.48;52.61
21433;BME280;18592;49.708;10.900;2024-03-08T03:08:57;98648.56;;;13.41;52.58
21433;BME280;18592;49.708;10.900;2024-03-08T03:10:57;98645.81;;;13.36;52.68
21433;BME280;18592;49.708;10.900;2024-03-08T03:12:58;98651.56;;;13.34;52.90
21433;BME280;18592;49.708;10.900;2024-03-08T03:14:58;98649.34;;;13.31;52.91
21433;BME280;18592;49.708;10.900;2024-03-08T03:16:58;98644.41;;;13.28;52.65
21433;BME280;18592;49.708;10.900;2024-03-08T03:19:14;98641.09;;;13.26;52.91
21433;BME280;18592;49.708;10.900;2024-03-08T03:21:15;98637.00;;;13.24;52.69
21433;BME280;18592;49.708;10.900;2024-03-08T03:23:31;98640.84;;;13.23;52.24
21433;BME280;18592;49.708;10.900;2024-03-08T03:25:33;98639.44;;;13.20;52.08
21433;BME280;18592;49.708;10.900;2024-03-08T03:27:34;98636.97;;;13.19;52.58
21433;BME280;18592;49.708;10.900;2024-03-08T03:29:35;98639.69;;;13.19;52.64
21433;BME280;18592;49.708;10.900;2024-03-08T03:31:35;98642.72;;;13.17;52.52
21433;BME280;18592;49.708;10.900;2024-03-08T03:33:36;98633.66;;;13.17;52.63
21433;BME280;18592;49.708;10.900;2024-03-08T03:35:52;98638.31;;;13.16;52.49
21433;BME280;18592;49.708;10.900;2024-03-08T03:37:53;98633.94;;;13.15;52.80
21433;BME280;18592;49.708;10.900;2024-03-08T03:40:07;98631.22;;;13.15;53.15
21433;BME280;18592;49.708;10.900;2024-03-08T03:42:08;98630.09;;;13.16;52.87
21433;BME280;18592;49.708;10.900;2024-03-08T03:44:24;98636.41;;;13.17;53.13
21433;BME280;18592;49.708;10.900;2024-03-08T03:46:24;98635.34;;;13.18;53.06
21433;BME280;18592;49.708;10.900;2024-03-08T03:48:43;98627.91;;;13.18;52.89
21433;BME280;18592;49.708;10.900;2024-03-08T04:01:42;98629.19;;;13.06;52.94
21433;BME280;18592;49.708;10.900;2024-03-08T04:03:42;98627.88;;;13.08;53.10
21433;BME280;18592;49.708;10.900;2024-03-08T04:05:43;98633.09;;;13.10;52.99
21433;BME280;18592;49.708;10.900;2024-03-08T04:07:43;98627.34;;;13.11;52.50
21433;BME280;18592;49.708;10.900;2024-03-08T04:09:44;98637.47;;;13.11;53.10
21433;BME280;18592;49.708;10.900;2024-03-08T04:11:45;98627.09;;;13.13;53.02
21433;BME280;18592;49.708;10.900;2024-03-08T04:13:45;98623.53;;;13.12;53.19
21433;BME280;18592;49.708;10.900;2024-03-08T04:15:45;98630.63;;;13.13;53.26
21433;BME280;18592;49.708;10.900;2024-03-08T04:17:48;98635.03;;;13.14;53.08
21433;BME280;18592;49.708;10.900;2024-03-08T04:19:48;98629.56;;;13.14;53.39
21433;BME280;18592;49.708;10.900;2024-03-08T04:21:49;98633.94;;;13.15;53.30
21433;BME280;18592;49.708;10.900;2024-03-08T04:24:04;98632.00;;;13.16;53.33
21433;BME280;18592;49.708;10.900;2024-03-08T04:26:05;98629.28;;;13.16;53.21
21433;BME280;18592;49.708;10.900;2024-03-08T04:28:22;98623.56;;;13.17;53.45
21433;BME280;18592;49.708;10.900;2024-03-08T04:30:23;98622.44;;;13.18;53.32
21433;BME280;18592;49.708;10.900;2024-03-08T04:32:25;98614.22;;;13.18;53.39
21433;BME280;18592;49.708;10.900;2024-03-08T04:34:25;98620.53;;;13.19;53.35
21433;BME280;18592;49.708;10.900;2024-03-08T04:36:26;98616.97;;;13.18;53.19
21433;BME280;18592;49.708;10.900;2024-03-08T04:38:27;98616.72;;;13.20;53.42
21433;BME280;18592;49.708;10.900;2024-03-08T04:40:27;98604.66;;;13.21;53.51
21433;BME280;18592;49.708;10.900;2024-03-08T04:42:28;98613.47;;;13.23;53.44
21433;BME280;18592;49.708;10.900;2024-03-08T04:44:30;98612.34;;;13.24;53.43
21433;BME280;18592;49.708;10.900;2024-03-08T04:46:31;98611.53;;;13.23;53.49
21433;BME280;18592;49.708;10.900;2024-03-08T04:48:32;98613.47;;;13.23;53.28
21433;BME280;18592;49.708;10.900;2024-03-08T04:50:33;98606.03;;;13.23;53.25
21433;BME280;18592;49.708;10.900;2024-03-08T04:52:34;98615.09;;;13.24;53.41
21433;BME280;18592;49.708;10.900;2024-03-08T04:54:35;98606.88;;;13.24;53.03
21433;BME280;18592;49.708;10.900;2024-03-08T04:56:36;98598.94;;;13.22;53.18
21433;BME280;18592;49.708;10.900;2024-03-08T04:58:36;98602.75;;;13.21;53.10
21433;BME280;18592;49.708;10.900;2024-03-08T05:00:36;98602.22;;;13.19;52.90
21433;BME280;18592;49.708;10.900;2024-03-08T05:02:38;98599.75;;;13.18;52.85
21433;BME280;18592;49.708;10.900;2024-03-08T05:04:39;98607.97;;;13.18;52.97
21433;BME280;18592;49.708;10.900;2024-03-08T05:06:39;98604.41;;;13.17;53.01
21433;BME280;18592;49.708;10.900;2024-03-08T05:08:52;98606.59;;;13.15;53.00
21433;BME280;18592;49.708;10.900;2024-03-08T05:10:54;98610.13;;;13.16;52.97
21433;BME280;18592;49.708;10.900;2024-03-08T05:12:54;98601.09;;;13.15;53.22
21433;BME280;18592;49.708;10.900;2024-03-08T05:14:54;98602.72;;;13.16;53.09
21433;BME280;18592;49.708;10.900;2024-03-08T05:16:55;98596.44;;;13.16;53.03
21433;BME280;18592;49.708;10.900;2024-03-08T05:18:59;98584.69;;;13.15;52.93
21433;BME280;18592;49.708;10.900;2024-03-08T05:21:00;98592.91;;;13.15;52.87
21433;BME280;18592;49.708;10.900;2024-03-08T05:23:00;98595.63;;;13.15;52.94
21433;BME280;18592;49.708;10.900;2024-03-08T05:25:00;98592.06;;;13.15;52.58
21433;BME280;18592;49.708;10.900;2024-03-08T05:27:01;98588.50;;;13.14;53.10
21433;BME280;18592;49.708;10.900;2024-03-08T05:29:06;98597.00;;;13.13;52.83
21433;BME280;18592;49.708;10.900;2024-03-08T05:31:07;98590.69;;;13.12;52.81
21433;BME280;18592;49.708;10.900;2024-03-08T05:33:08;98592.03;;;13.10;52.70
21433;BME280;18592;49.708;10.900;2024-03-08T05:35:14;98585.19;;;13.07;52.71
21433;BME280;18592;49.708;10.900;2024-03-08T05:37:16;98587.94;;;13.07;52.63
21433;BME280;18592;49.708;10.900;2024-03-08T05:39:17;98579.94;;;13.06;52.57
21433;BME280;18592;49.708;10.900;2024-03-08T05:41:18;98587.34;;;13.05;52.61
21433;BME280;18592;49.708;10.900;2024-03-08T05:43:18;98582.94;;;13.04;52.67
21433;BME280;18592;49.708;10.900;2024-03-08T05:45:21;98585.69;;;13.04;52.72
21433;BME280;18592;49.708;10.900;2024-03-08T05:47:21;98578.56;;;13.03;52.35
21433;BME280;18592;49.708;10.900;2024-03-08T05:49:22;98585.13;;;13.02;52.51
21433;BME280;18592;49.708;10.900;2024-03-08T05:51:24;98577.47;;;13.04;52.50
21433;BME280;18592;49.708;10.900;2024-03-08T05:53:24;98577.47;;;13.04;52.71
21433;BME280;18592;49.708;10.900;2024-03-08T05:55:24;98575.81;;;13.03;52.50
21433;BME280;18592;49.708;10.900;2024-03-08T05:57:25;98572.00;;;13.04;52.49
21433;BME280;18592;49.708;10.900;2024-03-08T05:59:25;98577.75;;;13.03;51.91
21433;BME280;18592;49.708;10.900;2024-03-08T06:01:33;98573.34;;;13.02;51.84
21433;BME280;18592;49.708;10.900;2024-03-08T06:03:36;98577.16;;;13.01;51.88
21433;BME280;18592;49.708;10.900;2024-03-08T06:05:36;98577.44;;;12.99;52.02
21433;BME280;18592;49.708;10.900;2024-03-08T06:07:42;98574.16;;;12.97;51.96
21433;BME280;18592;49.708;10.900;2024-03-08T06:09:42;98570.88;;;12.95;51.46
21433;BME280;18592;49.708;10.900;2024-03-08T06:11:45;98574.41;;;12.96;51.24
21433;BME280;18592;49.708;10.900;2024-03-08T06:13:46;98573.59;;;12.95;51.56
21433;BME280;18592;49.708;10.900;2024-03-08T06:15:46;98571.13;;;12.94;51.50
21433;BME280;18592;49.708;10.900;2024-03-08T06:17:47;98566.75;;;12.93;50.33
21433;BME280;18592;49.708;10.900;2024-03-08T06:20:07;98563.44;;;12.91;50.34
21433;BME280;18592;49.708;10.900;2024-03-08T06:22:10;98566.44;;;12.89;50.95
21433;BME280;18592;49.708;10.900;2024-03-08T06:24:11;98556.34;;;12.90;50.62
21433;BME280;18592;49.708;10.900;2024-03-08T06:26:11;98558.25;;;12.89;50.27
21433;BME280;18592;49.708;10.900;2024-03-08T06:28:11;98568.34;;;12.89;50.52
21433;BME280;18592;49.708;10.900;2024-03-08T06:30:14;98568.63;;;12.87;51.16
21433;BME280;18592;49.708;10.900;2024-03-08T06:32:31;98580.09;;;12.84;50.81
21433;BME280;18592;49.708;10.900;2024-03-08T06:34:40;98566.94;;;12.81;50.89
21433;BME280;18592;49.708;10.900;2024-03-08T06:36:40;98559.81;;;12.80;50.92
21433;BME280;18592;49.708;10.900;2024-03-08T06:38:41;98563.66;;;12.79;51.03
21433;BME280;18592;49.708;10.900;2024-03-08T06:40:55;98555.16;;;12.75;51.04
21433;BME280;18592;49.708;10.900;2024-03-08T06:53:41;98557.66;;;13.39;49.80
21433;BME280;18592;49.708;10.900;2024-03-08T06:55:41;98553.25;;;13.23;50.30
21433;BME280;18592;49.708;10.900;2024-03-08T06:57:42;98544.16;;;13.12;50.75
21433;BME280;18592;49.708;10.900;2024-03-08T06:59:42;98547.38;;;13.04;50.94
21433;BME280;18592;49.708;10.900;2024-03-08T07:01:58;98557.47;;;12.99;51.00
21433;BME280;18592;49.708;10.900;2024-03-08T07:04:00;98555.53;;;12.94;50.76
21433;BME280;18592;49.708;10.900;2024-03-08T07:06:02;98558.56;;;12.93;51.05
21433;BME280;18592;49.708;10.900;2024-03-08T07:08:03;98556.59;;;12.88;51.09
21433;BME280;18592;49.708;10.900;2024-03-08T07:10:03;98556.59;;;12.88;50.85
21433;BME280;18592;49.708;10.900;2024-03-08T07:12:04;98543.44;;;12.85;51.07
21433;BME280;18592;49.708;10.900;2024-03-08T07:14:36;98555.22;;;12.91;51.62
21433;BME280;18592;49.708;10.900;2024-03-08T07:16:57;98544.59;;;12.94;51.94
21433;BME280;18592;49.708;10.900;2024-03-08T07:19:04;98547.91;;;13.01;51.75
21433;BME280;18592;49.708;10.900;2024-03-08T07:21:29;98542.78;;;13.10;51.57
21433;BME280;18592;49.708;10.900;2024-03-08T07:23:33;98542.53;;;13.16;51.45
21433;BME280;18592;49.708;10.900;2024-03-08T07:25:56;98548.56;;;13.23;51.29
21433;BME280;18592;49.708;10.900;2024-03-08T07:28:11;98537.09;;;13.31;51.06
21433;BME280;18592;49.708;10.900;2024-03-08T07:30:25;98534.66;;;13.40;50.86
21433;BME280;18592;49.708;10.900;2024-03-08T07:32:51;98523.19;;;13.48;50.86
21433;BME280;18592;49.708;10.900;2024-03-08T07:34:53;98524.28;;;13.57;50.59
21433;BME280;18592;49.708;10.900;2024-03-08T07:37:11;98515.28;;;13.67;50.78
21433;BME280;18592;49.708;10.900;2024-03-08T07:39:26;98513.91;;;13.79;50.88
21433;BME280;18592;49.708;10.900;2024-03-08T07:41:39;98513.38;;;13.92;50.84
21433;BME280;18592;49.708;10.900;2024-03-08T07:43:49;98507.06;;;14.07;50.70
21433;BME280;18592;49.708;10.900;2024-03-08T07:45:50;98507.63;;;14.19;50.68
21433;BME280;18592;49.708;10.900;2024-03-08T07:48:00;98502.16;;;14.34;50.87
21433;BME280;18592;49.708;10.900;2024-03-08T07:50:32;98498.03;;;14.47;49.94
21433;BME280;18592;49.708;10.900;2024-03-08T07:52:47;98502.91;;;14.60;48.73
21433;BME280;18592;49.708;10.900;2024-03-08T07:55:05;98501.50;;;14.73;48.99
21433;BME280;18592;49.708;10.900;2024-03-08T07:57:06;98497.94;;;14.82;48.81
21433;BME280;18592;49.708;10.900;2024-03-08T07:59:20;98501.16;;;14.94;48.33
21433;BME280;18592;49.708;10.900;2024-03-08T08:01:34;98501.38;;;15.03;47.57
21433;BME280;18592;49.708;10.900;2024-03-08T08:03:45;98498.88;;;15.11;47.05
21433;BME280;18592;49.708;10.900;2024-03-08T08:05:55;98502.69;;;15.20;46.82
21433;BME280;18592;49.708;10.900;2024-03-08T08:07:56;98490.28;;;15.28;46.62
21433;BME280;18592;49.708;10.900;2024-03-08T08:10:09;98487.50;;;15.33;46.69
21433;BME280;18592;49.708;10.900;2024-03-08T08:12:28;98488.84;;;15.41;46.93
21433;BME280;18592;49.708;10.900;2024-03-08T08:14:40;98488.84;;;15.46;46.52
21433;BME280;18592;49.708;10.900;2024-03-08T08:16:42;98489.63;;;15.51;46.18
21433;BME280;18592;49.708;10.900;2024-03-08T08:19:00;98478.38;;;15.53;45.56
21433;BME280;18592;49.708;10.900;2024-03-08T08:21:16;98479.09;;;15.68;44.94
21433;BME280;18592;49.708;10.900;2024-03-08T08:23:32;98476.38;;;15.63;44.83
21433;BME280;18592;49.708;10.900;2024-03-08T08:25:42;98470.94;;;15.58;44.83
21433;BME280;18592;49.708;10.900;2024-03-08T08:27:55;98465.72;;;15.52;44.54
21433;BME280;18592;49.708;10.900;2024-03-08T08:30:05;98464.13;;;15.46;44.80
21433;BME280;18592;49.708;10.900;2024-03-08T08:32:23;98457.81;;;15.40;44.44
21433;BME280;18592;49.708;10.900;2024-03-08T08:34:29;98461.13;;;15.37;44.31
21433;BME280;18592;49.708;10.900;2024-03-08T08:36:31;98458.41;;;15.32;44.48
21433;BME280;18592;49.708;10.900;2024-03-08T08:38:33;98452.66;;;15.28;44.08
21433;BME280;18592;49.708;10.900;2024-03-08T08:40:43;98462.28;;;15.26;44.28
21433;BME280;18592;49.708;10.900;2024-03-08T08:42:45;98466.41;;;15.23;44.40
21433;BME280;18592;49.708;10.900;2024-03-08T08:45:00;98450.25;;;15.22;44.50
21433;BME280;18592;49.708;10.900;2024-03-08T08:47:16;98449.41;;;15.21;44.09
21433;BME280;18592;49.708;10.900;2024-03-08T08:49:18;98450.47;;;15.25;44.35
21433;BME280;18592;49.708;10.900;2024-03-08T08:51:20;98443.03;;;15.31;44.40
21433;BME280;18592;49.708;10.900;2024-03-08T08:53:22;98447.94;;;15.39;45.25
21433;BME280;18592;49.708;10.900;2024-03-08T08:55:29;98439.38;;;15.51;45.28
21433;BME280;18592;49.708;10.900;2024-03-08T08:57:42;98440.66;;;15.63;45.16
21433;BME280;18592;49.708;10.900;2024-03-08T08:59:45;98443.84;;;15.75;45.46
21433;BME280;18592;49.708;10.900;2024-03-08T09:01:46;98436.88;;;15.88;45.47
21433;BME280;18592;49.708;10.900;2024-03-08T09:03:50;98433.75;;;16.00;45.61
21433;BME280;18592;49.708;10.900;2024-03-08T09:05:58;98436.13;;;16.11;45.31
21433;BME280;18592;49.708;10.900;2024-03-08T09:08:13;98430.75;;;16.25;45.37
21433;BME280;18592;49.708;10.900;2024-03-08T09:20:59;98408.41;;;17.40;44.15
21433;BME280;18592;49.708;10.900;2024-03-08T09:23:04;98404.00;;;17.39;44.22
21433;BME280;18592;49.708;10.900;2024-03-08T09:25:05;98404.00;;;17.39;44.48
21433;BME280;18592;49.708;10.900;2024-03-08T09:27:05;98407.56;;;17.39;44.02
21433;BME280;18592;49.708;10.900;2024-03-08T09:29:06;98402.88;;;17.40;44.10
21433;BME280;18592;49.708;10.900;2024-03-08T09:31:07;98398.19;;;17.40;43.87
21433;BME280;18592;49.708;10.900;2024-03-08T09:33:07;98388.50;;;17.43;44.08
21433;BME280;18592;49.708;10.900;2024-03-08T09:35:09;98395.03;;;17.47;43.81
21433;BME280;18592;49.708;10.900;2024-03-08T09:37:11;98386.19;;;17.50;43.78
21433;BME280;18592;49.708;10.900;2024-03-08T09:49:59;98369.50;;;18.52;42.20
21433;BME280;18592;49.708;10.900;2024-03-08T09:51:59;98376.22;;;18.46;42.16
21433;BME280;18592;49.708;10.900;2024-03-08T09:54:15;98377.41;;;18.39;42.41
21433;BME280;18592;49.708;10.900;2024-03-08T09:56:17;98370.56;;;18.37;42.39
21433;BME280;18592;49.708;10.900;2024-03-08T09:58:28;98375.28;;;18.36;42.44
21433;BME280;18592;49.708;10.900;2024-03-08T10:00:36;98375.28;;;18.36;42.33
21433;BME280;18592;49.708;10.900;2024-03-08T10:02:36;98370.56;;;18.37;42.13
21433;BME280;18592;49.708;10.900;2024-03-08T10:04:52;98373.03;;;18.38;42.52
21433;BME280;18592;49.708;10.900;2024-03-08T10:06:53;98377.13;;;18.41;42.56
21433;BME280;18592;49.708;10.900;2024-03-08T10:08:53;98370.69;;;18.46;42.34
21433;BME280;18592;49.708;10.900;2024-03-08T10:10:54;98362.66;;;18.49;42.10
21433;BME280;18592;49.708;10.900;2024-03-08T10:12:55;98357.81;;;18.55;42.30
21433;BME280;18592;49.708;10.900;2024-03-08T10:14:55;98354.97;;;18.60;42.46
21433;BME280;18592;49.708;10.900;2024-03-08T10:16:59;98361.19;;;18.65;42.25
21433;BME280;18592;49.708;10.900;2024-03-08T10:19:00;98358.03;;;18.72;42.35
21433;BME280;18592;49.708;10.900;2024-03-08T10:21:08;98347.38;;;18.79;41.26
21433;BME280;18592;49.708;10.900;2024-03-08T10:23:13;98343.69;;;18.83;41.77
21433;BME280;18592;49.708;10.900;2024-03-08T10:25:40;98334.66;;;18.91;41.50
21433;BME280;18592;49.708;10.900;2024-03-08T10:28:13;98339.47;;;18.99;41.98
21433;BME280;18592;49.708;10.900;2024-03-08T10:30:28;98332.38;;;19.07;41.90
21433;BME280;18592;49.708;10.900;2024-03-08T10:32:29;98339.63;;;19.17;41.65
21433;BME280;18592;49.708;10.900;2024-03-08T10:34:43;98337.22;;;19.24;41.50
21433;BME280;18592;49.708;10.900;2024-03-08T10:36:48;98327.38;;;19.31;41.62
21433;BME280;18592;49.708;10.900;2024-03-08T10:38:51;98330.53;;;19.38;41.00
21433;BME280;18592;49.708;10.900;2024-03-08T10:51:37;98313.19;;;20.30;39.02
21433;BME280;18592;49.708;10.900;2024-03-08T10:53:40;98310.09;;;20.23;39.29
21433;BME280;18592;49.708;10.900;2024-03-08T10:55:42;98310.50;;;20.16;38.89
21433;BME280;18592;49.708;10.900;2024-03-08T10:57:44;98310.66;;;20.11;38.80
21433;BME280;18592;49.708;10.900;2024-03-08T10:59:46;98305.25;;;20.06;38.21
21433;BME280;18592;49.708;10.900;2024-03-08T11:01:47;98294.66;;;20.00;37.98
21433;BME280;18592;49.708;10.900;2024-03-08T11:03:48;98297.22;;;19.96;38.46
21433;BME280;18592;49.708;10.900;2024-03-08T11:06:09;98289.59;;;19.93;38.24
21433;BME280;18592;49.708;10.900;2024-03-08T11:08:18;98292.03;;;19.95;38.78
21433;BME280;18592;49.708;10.900;2024-03-08T11:10:22;98296.44;;;19.96;38.88
21433;BME280;18592;49.708;10.900;2024-03-08T11:12:25;98288.63;;;19.98;38.26
21433;BME280;18592;49.708;10.900;2024-03-08T11:14:44;98286.69;;;19.98;37.93
21433;BME280;18592;49.708;10.900;2024-03-08T11:16:46;98301.00;;;20.00;38.83
21433;BME280;18592;49.708;10.900;2024-03-08T11:18:47;98278.25;;;20.03;38.33
21433;BME280;18592;49.708;10.900;2024-03-08T11:20:48;98275.13;;;20.05;38.30
21433;BME280;18592;49.708;10.900;2024-03-08T11:22:55;98273.34;;;20.09;38.65
21433;BME280;18592;49.708;10.900;2024-03-08T11:25:02;98263.78;;;20.15;38.62
21433;BME280;18592;49.708;10.900;2024-03-08T11:27:03;98262.00;;;20.19;38.51
21433;BME280;18592;49.708;10.900;2024-03-08T11:31:28;98258.47;;;20.27;38.30
21433;BME280;18592;49.708;10.900;2024-03-08T11:33:46;98238.47;;;20.30;37.83
21433;BME280;18592;49.708;10.900;2024-03-08T11:36:25;98237.53;;;20.60;36.95
21433;BME280;18592;49.708;10.900;2024-03-08T11:38:25;98238.19;;;20.57;37.21
21433;BME280;18592;49.708;10.900;2024-03-08T11:40:26;98233.28;;;20.54;37.14
21433;BME280;18592;49.708;10.900;2024-03-08T11:42:48;98224.50;;;20.52;36.42
21433;BME280;18592;49.708;10.900;2024-03-08T11:44:50;98219.28;;;20.51;36.89
21433;BME280;18592;49.708;10.900;2024-03-08T11:46:50;98222.53;;;20.53;37.04
21433;BME280;18592;49.708;10.900;2024-03-08T11:48:54;98213.91;;;20.54;36.69
21433;BME280;18592;49.708;10.900;2024-03-08T11:51:00;98210.66;;;20.61;36.42
21433;BME280;18592;49.708;10.900;2024-03-08T11:53:19;98211.16;;;20.63;36.81
21433;BME280;18592;49.708;10.900;2024-03-08T11:55:34;98208.72;;;20.61;36.50
21433;BME280;18592;49.708;10.900;2024-03-08T11:57:59;98211.47;;;20.61;36.40
21433;BME280;18592;49.708;10.900;2024-03-08T12:00:01;98204.47;;;20.64;36.74
21433;BME280;18592;49.708;10.900;2024-03-08T12:02:12;98200.88;;;20.63;36.56
21433;BME280;18592;49.708;10.900;2024-03-08T12:04:14;98189.47;;;20.65;36.78
21433;BME280;18592;49.708;10.900;2024-03-08T12:06:15;98197.78;;;20.65;36.73
21433;BME280;18592;49.708;10.900;2024-03-08T12:08:27;98190.63;;;20.64;36.20
21433;BME280;18592;49.708;10.900;2024-03-08T12:10:35;98175.97;;;20.63;36.40
21433;BME280;18592;49.708;10.900;2024-03-08T12:12:40;98187.84;;;20.64;36.83
21433;BME280;18592;49.708;10.900;2024-03-08T12:14:57;98176.44;;;20.65;36.44
21433;BME280;18592;49.708;10.900;2024-03-08T12:16:59;98166.53;;;20.64;36.30
21433;BME280;18592;49.708;10.900;2024-03-08T12:29:43;98145.63;;;21.10;34.23
21433;BME280;18592;49.708;10.900;2024-03-08T12:31:44;98153.28;;;20.96;34.78
21433;BME280;18592;49.708;10.900;2024-03-08T12:35:51;98154.25;;;20.82;35.30